Raugust, Washington
Current Conditions -  °F | °C
As of 10:52 AM on Thursday 30 Oct 2014 (Local Time) from KMWH Reporting Station
Overcast Overcast  
Wind Chill: 54°   Ceiling: 9000
Heat Index: 54°   Visibility: 10mi
Dew Point: 49°   Wind: 7mph
Humidity: 83%   Direction: 350°N
Pressure: 30.05"   Gusts: NA
Location:  47.1758°N, 119.289°W
Report Text: KMWH 301752Z 35006KT 10SM SCT065 BKN090 OVC100 12/09 A3005 RMK AO2 SLP180 60001 T01220094 10122 20094 58007
Loading
Personal Weather Stations






























Interactive Weather Map New forecast layout! Learn more

10-Day Weather Forecast

Advertisements
Track Severe Weather on mobile